sensor_id;sensor_type;location;lat;lon;timestamp;P1;durP1;ratioP1;P2;durP2;ratioP2
42364;SDS011;28498;54.400;18.566;2022-10-31T00:01:11;22.10;;;11.10;;
42364;SDS011;28498;54.400;18.566;2022-10-31T00:03:39;26.15;;;12.13;;
42364;SDS011;28498;54.400;18.566;2022-10-31T00:06:06;20.60;;;11.65;;
42364;SDS011;28498;54.400;18.566;2022-10-31T00:08:33;18.63;;;10.95;;
42364;SDS011;28498;54.400;18.566;2022-10-31T00:11:00;22.88;;;10.57;;
42364;SDS011;28498;54.400;18.566;2022-10-31T00:13:28;21.95;;;11.18;;
42364;SDS011;28498;54.400;18.566;2022-10-31T00:15:55;19.75;;;11.05;;
42364;SDS011;28498;54.400;18.566;2022-10-31T00:18:21;20.35;;;11.43;;
42364;SDS011;28498;54.400;18.566;2022-10-31T00:20:48;20.35;;;10.13;;
42364;SDS011;28498;54.400;18.566;2022-10-31T00:23:24;20.48;;;10.15;;
42364;SDS011;28498;54.400;18.566;2022-10-31T00:25:51;17.95;;;9.85;;
42364;SDS011;28498;54.400;18.566;2022-10-31T00:28:17;19.00;;;10.13;;
42364;SDS011;28498;54.400;18.566;2022-10-31T00:30:49;22.02;;;11.10;;
42364;SDS011;28498;54.400;18.566;2022-10-31T00:33:16;20.65;;;11.68;;
42364;SDS011;28498;54.400;18.566;2022-10-31T00:35:48;24.90;;;10.27;;
42364;SDS011;28498;54.400;18.566;2022-10-31T00:38:16;23.05;;;10.88;;
42364;SDS011;28498;54.400;18.566;2022-10-31T00:40:43;19.85;;;10.63;;
42364;SDS011;28498;54.400;18.566;2022-10-31T00:43:10;19.98;;;10.30;;
42364;SDS011;28498;54.400;18.566;2022-10-31T00:45:42;24.73;;;13.85;;
42364;SDS011;28498;54.400;18.566;2022-10-31T00:48:10;23.88;;;13.50;;
42364;SDS011;28498;54.400;18.566;2022-10-31T00:50:37;25.35;;;12.40;;
42364;SDS011;28498;54.400;18.566;2022-10-31T00:53:05;23.30;;;14.35;;
42364;SDS011;28498;54.400;18.566;2022-10-31T00:55:32;26.73;;;14.35;;
42364;SDS011;28498;54.400;18.566;2022-10-31T00:57:59;25.23;;;13.73;;
42364;SDS011;28498;54.400;18.566;2022-10-31T01:00:27;30.80;;;15.60;;
42364;SDS011;28498;54.400;18.566;2022-10-31T01:02:54;30.75;;;16.27;;
42364;SDS011;28498;54.400;18.566;2022-10-31T01:05:21;28.27;;;15.50;;
42364;SDS011;28498;54.400;18.566;2022-10-31T01:07:48;27.25;;;14.65;;
42364;SDS011;28498;54.400;18.566;2022-10-31T01:10:15;24.65;;;14.63;;
42364;SDS011;28498;54.400;18.566;2022-10-31T01:12:45;22.92;;;13.07;;
42364;SDS011;28498;54.400;18.566;2022-10-31T01:15:15;25.98;;;14.55;;
42364;SDS011;28498;54.400;18.566;2022-10-31T01:17:49;25.98;;;16.67;;
42364;SDS011;28498;54.400;18.566;2022-10-31T01:20:18;29.73;;;16.88;;
42364;SDS011;28498;54.400;18.566;2022-10-31T01:22:45;32.05;;;19.58;;
42364;SDS011;28498;54.400;18.566;2022-10-31T01:25:12;49.70;;;27.10;;
42364;SDS011;28498;54.400;18.566;2022-10-31T01:27:39;49.30;;;27.70;;
42364;SDS011;28498;54.400;18.566;2022-10-31T01:30:06;51.42;;;30.42;;
42364;SDS011;28498;54.400;18.566;2022-10-31T01:32:33;46.92;;;26.90;;
42364;SDS011;28498;54.400;18.566;2022-10-31T01:35:00;41.28;;;24.20;;
42364;SDS011;28498;54.400;18.566;2022-10-31T01:37:27;43.83;;;24.40;;
42364;SDS011;28498;54.400;18.566;2022-10-31T01:39:54;32.50;;;21.20;;
42364;SDS011;28498;54.400;18.566;2022-10-31T01:42:22;38.45;;;22.65;;
42364;SDS011;28498;54.400;18.566;2022-10-31T01:44:50;35.92;;;21.23;;
42364;SDS011;28498;54.400;18.566;2022-10-31T01:47:45;33.85;;;20.70;;
42364;SDS011;28498;54.400;18.566;2022-10-31T01:50:18;36.13;;;20.88;;
42364;SDS011;28498;54.400;18.566;2022-10-31T01:52:57;43.55;;;25.23;;
42364;SDS011;28498;54.400;18.566;2022-10-31T01:55:32;44.90;;;26.75;;
42364;SDS011;28498;54.400;18.566;2022-10-31T01:58:08;41.08;;;23.92;;
42364;SDS011;28498;54.400;18.566;2022-10-31T02:00:41;38.83;;;22.33;;
42364;SDS011;28498;54.400;18.566;2022-10-31T02:03:11;35.28;;;22.38;;
42364;SDS011;28498;54.400;18.566;2022-10-31T02:05:38;42.20;;;23.23;;
42364;SDS011;28498;54.400;18.566;2022-10-31T02:11:03;43.72;;;24.85;;
42364;SDS011;28498;54.400;18.566;2022-10-31T02:13:31;39.90;;;24.02;;
42364;SDS011;28498;54.400;18.566;2022-10-31T02:16:00;40.03;;;24.33;;
42364;SDS011;28498;54.400;18.566;2022-10-31T02:18:28;39.33;;;23.33;;
42364;SDS011;28498;54.400;18.566;2022-10-31T02:34:51;33.92;;;18.63;;
42364;SDS011;28498;54.400;18.566;2022-10-31T02:37:25;39.05;;;20.05;;
42364;SDS011;28498;54.400;18.566;2022-10-31T02:40:22;39.35;;;20.17;;
42364;SDS011;28498;54.400;18.566;2022-10-31T02:45:28;50.00;;;23.08;;
42364;SDS011;28498;54.400;18.566;2022-10-31T02:48:00;53.10;;;23.60;;
42364;SDS011;28498;54.400;18.566;2022-10-31T02:50:35;63.65;;;25.88;;
42364;SDS011;28498;54.400;18.566;2022-10-31T02:53:06;58.60;;;23.90;;
42364;SDS011;28498;54.400;18.566;2022-10-31T02:58:21;65.88;;;28.08;;
42364;SDS011;28498;54.400;18.566;2022-10-31T03:03:19;65.25;;;30.52;;
42364;SDS011;28498;54.400;18.566;2022-10-31T03:08:42;74.22;;;31.38;;
42364;SDS011;28498;54.400;18.566;2022-10-31T03:11:22;76.30;;;33.42;;
42364;SDS011;28498;54.400;18.566;2022-10-31T03:13:57;81.25;;;32.10;;
42364;SDS011;28498;54.400;18.566;2022-10-31T03:16:45;76.40;;;34.00;;
42364;SDS011;28498;54.400;18.566;2022-10-31T03:19:16;72.50;;;31.35;;
42364;SDS011;28498;54.400;18.566;2022-10-31T03:21:54;85.88;;;33.28;;
42364;SDS011;28498;54.400;18.566;2022-10-31T03:24:29;70.57;;;33.03;;
42364;SDS011;28498;54.400;18.566;2022-10-31T03:26:59;93.95;;;35.60;;
42364;SDS011;28498;54.400;18.566;2022-10-31T03:29:27;78.65;;;34.75;;
42364;SDS011;28498;54.400;18.566;2022-10-31T03:31:59;92.25;;;38.42;;
42364;SDS011;28498;54.400;18.566;2022-10-31T03:34:29;78.30;;;34.05;;
42364;SDS011;28498;54.400;18.566;2022-10-31T03:36:59;88.97;;;36.22;;
42364;SDS011;28498;54.400;18.566;2022-10-31T03:39:28;79.65;;;35.65;;
42364;SDS011;28498;54.400;18.566;2022-10-31T03:41:58;79.63;;;33.95;;
42364;SDS011;28498;54.400;18.566;2022-10-31T03:44:30;90.43;;;37.58;;
42364;SDS011;28498;54.400;18.566;2022-10-31T03:47:01;91.15;;;35.17;;
42364;SDS011;28498;54.400;18.566;2022-10-31T03:49:30;92.93;;;37.40;;
42364;SDS011;28498;54.400;18.566;2022-10-31T03:52:04;104.38;;;40.13;;
42364;SDS011;28498;54.400;18.566;2022-10-31T03:54:42;94.47;;;38.33;;
42364;SDS011;28498;54.400;18.566;2022-10-31T03:59:55;109.25;;;40.75;;
42364;SDS011;28498;54.400;18.566;2022-10-31T04:02:32;88.18;;;36.22;;
42364;SDS011;28498;54.400;18.566;2022-10-31T04:05:04;91.70;;;37.28;;
42364;SDS011;28498;54.400;18.566;2022-10-31T04:07:33;84.53;;;35.95;;
42364;SDS011;28498;54.400;18.566;2022-10-31T04:10:04;83.25;;;35.33;;
42364;SDS011;28498;54.400;18.566;2022-10-31T04:12:36;92.15;;;35.78;;
42364;SDS011;28498;54.400;18.566;2022-10-31T04:15:05;97.20;;;41.50;;
42364;SDS011;28498;54.400;18.566;2022-10-31T04:17:36;104.65;;;37.78;;
42364;SDS011;28498;54.400;18.566;2022-10-31T04:20:06;95.57;;;39.20;;
42364;SDS011;28498;54.400;18.566;2022-10-31T04:22:34;96.32;;;38.65;;
42364;SDS011;28498;54.400;18.566;2022-10-31T04:25:01;129.63;;;48.00;;
42364;SDS011;28498;54.400;18.566;2022-10-31T04:27:28;96.10;;;42.00;;
42364;SDS011;28498;54.400;18.566;2022-10-31T04:29:54;115.13;;;45.83;;
42364;SDS011;28498;54.400;18.566;2022-10-31T04:32:21;116.68;;;45.95;;
42364;SDS011;28498;54.400;18.566;2022-10-31T04:34:48;96.75;;;41.10;;
42364;SDS011;28498;54.400;18.566;2022-10-31T04:37:15;127.40;;;43.70;;
42364;SDS011;28498;54.400;18.566;2022-10-31T04:39:42;99.68;;;41.50;;
42364;SDS011;28498;54.400;18.566;2022-10-31T04:42:09;91.15;;;38.55;;
42364;SDS011;28498;54.400;18.566;2022-10-31T04:44:36;122.65;;;39.67;;
42364;SDS011;28498;54.400;18.566;2022-10-31T04:47:03;135.57;;;40.38;;
42364;SDS011;28498;54.400;18.566;2022-10-31T04:49:30;115.93;;;36.50;;
42364;SDS011;28498;54.400;18.566;2022-10-31T04:51:57;87.70;;;33.83;;
42364;SDS011;28498;54.400;18.566;2022-10-31T04:54:24;83.38;;;32.95;;
42364;SDS011;28498;54.400;18.566;2022-10-31T04:56:51;81.18;;;34.83;;
42364;SDS011;28498;54.400;18.566;2022-10-31T04:59:18;82.07;;;35.92;;
42364;SDS011;28498;54.400;18.566;2022-10-31T05:01:44;86.55;;;34.50;;
42364;SDS011;28498;54.400;18.566;2022-10-31T05:04:12;89.35;;;38.40;;
42364;SDS011;28498;54.400;18.566;2022-10-31T05:06:38;86.60;;;37.45;;
42364;SDS011;28498;54.400;18.566;2022-10-31T05:09:05;86.43;;;36.65;;
42364;SDS011;28498;54.400;18.566;2022-10-31T05:11:32;96.97;;;40.85;;
42364;SDS011;28498;54.400;18.566;2022-10-31T05:13:59;99.88;;;40.83;;
42364;SDS011;28498;54.400;18.566;2022-10-31T05:16:26;94.03;;;40.60;;
42364;SDS011;28498;54.400;18.566;2022-10-31T05:18:54;100.18;;;41.47;;
42364;SDS011;28498;54.400;18.566;2022-10-31T05:21:21;97.18;;;40.88;;
42364;SDS011;28498;54.400;18.566;2022-10-31T05:23:48;92.75;;;41.35;;
42364;SDS011;28498;54.400;18.566;2022-10-31T05:26:15;94.22;;;39.80;;
42364;SDS011;28498;54.400;18.566;2022-10-31T05:28:42;97.75;;;39.63;;
42364;SDS011;28498;54.400;18.566;2022-10-31T05:31:09;97.63;;;38.42;;
42364;SDS011;28498;54.400;18.566;2022-10-31T05:33:36;100.72;;;37.55;;
42364;SDS011;28498;54.400;18.566;2022-10-31T05:36:03;95.15;;;37.10;;
42364;SDS011;28498;54.400;18.566;2022-10-31T05:38:30;97.22;;;36.47;;
42364;SDS011;28498;54.400;18.566;2022-10-31T05:40:57;90.82;;;35.00;;
42364;SDS011;28498;54.400;18.566;2022-10-31T05:43:26;89.15;;;36.92;;
42364;SDS011;28498;54.400;18.566;2022-10-31T05:45:54;80.15;;;34.15;;
42364;SDS011;28498;54.400;18.566;2022-10-31T05:48:22;94.90;;;36.78;;
42364;SDS011;28498;54.400;18.566;2022-10-31T05:50:49;90.75;;;36.40;;
42364;SDS011;28498;54.400;18.566;2022-10-31T05:53:16;76.72;;;33.03;;
42364;SDS011;28498;54.400;18.566;2022-10-31T05:55:43;86.40;;;34.88;;
42364;SDS011;28498;54.400;18.566;2022-10-31T05:58:10;85.10;;;34.35;;
42364;SDS011;28498;54.400;18.566;2022-10-31T06:00:37;78.53;;;33.10;;
42364;SDS011;28498;54.400;18.566;2022-10-31T06:03:05;84.28;;;33.78;;
42364;SDS011;28498;54.400;18.566;2022-10-31T06:05:34;89.35;;;35.85;;
42364;SDS011;28498;54.400;18.566;2022-10-31T06:08:01;78.70;;;34.55;;
42364;SDS011;28498;54.400;18.566;2022-10-31T06:10:28;80.97;;;31.25;;
42364;SDS011;28498;54.400;18.566;2022-10-31T06:12:55;79.10;;;32.30;;
42364;SDS011;28498;54.400;18.566;2022-10-31T06:15:22;76.95;;;33.28;;
42364;SDS011;28498;54.400;18.566;2022-10-31T06:18:00;79.95;;;33.47;;
42364;SDS011;28498;54.400;18.566;2022-10-31T06:20:31;70.75;;;30.17;;
42364;SDS011;28498;54.400;18.566;2022-10-31T06:22:59;66.63;;;29.20;;
42364;SDS011;28498;54.400;18.566;2022-10-31T06:25:27;72.32;;;32.47;;
42364;SDS011;28498;54.400;18.566;2022-10-31T06:27:54;83.60;;;31.95;;
42364;SDS011;28498;54.400;18.566;2022-10-31T06:30:22;68.93;;;29.95;;
42364;SDS011;28498;54.400;18.566;2022-10-31T06:32:49;79.22;;;31.58;;
42364;SDS011;28498;54.400;18.566;2022-10-31T06:35:16;68.68;;;30.63;;
42364;SDS011;28498;54.400;18.566;2022-10-31T06:37:50;78.32;;;32.10;;
42364;SDS011;28498;54.400;18.566;2022-10-31T06:40:18;60.80;;;27.08;;
42364;SDS011;28498;54.400;18.566;2022-10-31T06:42:45;68.80;;;30.13;;
42364;SDS011;28498;54.400;18.566;2022-10-31T06:45:12;66.57;;;29.13;;
42364;SDS011;28498;54.400;18.566;2022-10-31T06:47:39;71.50;;;30.08;;
42364;SDS011;28498;54.400;18.566;2022-10-31T06:50:26;63.78;;;29.58;;
42364;SDS011;28498;54.400;18.566;2022-10-31T06:52:57;59.58;;;28.08;;
42364;SDS011;28498;54.400;18.566;2022-10-31T06:55:25;66.00;;;29.30;;
42364;SDS011;28498;54.400;18.566;2022-10-31T06:57:53;69.13;;;28.50;;
42364;SDS011;28498;54.400;18.566;2022-10-31T07:00:28;58.63;;;28.20;;
42364;SDS011;28498;54.400;18.566;2022-10-31T07:02:57;60.42;;;26.98;;
42364;SDS011;28498;54.400;18.566;2022-10-31T07:05:25;54.20;;;25.60;;
42364;SDS011;28498;54.400;18.566;2022-10-31T07:07:57;56.58;;;25.65;;
42364;SDS011;28498;54.400;18.566;2022-10-31T07:10:27;57.33;;;26.75;;
42364;SDS011;28498;54.400;18.566;2022-10-31T07:13:00;58.45;;;26.92;;
42364;SDS011;28498;54.400;18.566;2022-10-31T07:15:29;55.63;;;26.38;;
42364;SDS011;28498;54.400;18.566;2022-10-31T07:18:00;61.15;;;27.17;;
42364;SDS011;28498;54.400;18.566;2022-10-31T07:20:28;62.90;;;25.55;;
42364;SDS011;28498;54.400;18.566;2022-10-31T07:22:55;61.10;;;28.67;;
42364;SDS011;28498;54.400;18.566;2022-10-31T07:25:23;60.20;;;27.73;;
42364;SDS011;28498;54.400;18.566;2022-10-31T07:27:50;68.68;;;29.92;;
42364;SDS011;28498;54.400;18.566;2022-10-31T07:30:17;59.80;;;26.42;;
42364;SDS011;28498;54.400;18.566;2022-10-31T07:32:45;53.42;;;26.27;;
42364;SDS011;28498;54.400;18.566;2022-10-31T07:35:15;65.10;;;28.20;;
42364;SDS011;28498;54.400;18.566;2022-10-31T07:37:48;54.03;;;26.73;;
42364;SDS011;28498;54.400;18.566;2022-10-31T07:40:16;52.47;;;23.98;;
42364;SDS011;28498;54.400;18.566;2022-10-31T07:42:45;51.83;;;26.15;;
42364;SDS011;28498;54.400;18.566;2022-10-31T07:45:15;55.67;;;27.00;;
42364;SDS011;28498;54.400;18.566;2022-10-31T07:47:45;49.35;;;26.42;;
42364;SDS011;28498;54.400;18.566;2022-10-31T07:53:54;49.97;;;23.83;;
42364;SDS011;28498;54.400;18.566;2022-10-31T07:56:21;51.35;;;26.30;;
42364;SDS011;28498;54.400;18.566;2022-10-31T07:58:48;49.22;;;24.35;;
42364;SDS011;28498;54.400;18.566;2022-10-31T08:01:15;46.03;;;23.25;;
42364;SDS011;28498;54.400;18.566;2022-10-31T08:03:42;48.78;;;23.63;;
42364;SDS011;28498;54.400;18.566;2022-10-31T08:06:09;41.63;;;22.05;;
42364;SDS011;28498;54.400;18.566;2022-10-31T08:08:36;45.35;;;24.10;;
42364;SDS011;28498;54.400;18.566;2022-10-31T08:11:03;44.35;;;22.42;;
42364;SDS011;28498;54.400;18.566;2022-10-31T08:13:30;40.70;;;22.15;;
42364;SDS011;28498;54.400;18.566;2022-10-31T08:19:38;40.40;;;21.80;;
42364;SDS011;28498;54.400;18.566;2022-10-31T08:22:05;39.97;;;22.25;;
42364;SDS011;28498;54.400;18.566;2022-10-31T08:24:32;35.78;;;19.35;;
42364;SDS011;28498;54.400;18.566;2022-10-31T08:26:59;34.75;;;20.70;;
42364;SDS011;28498;54.400;18.566;2022-10-31T08:29:26;37.50;;;21.17;;
42364;SDS011;28498;54.400;18.566;2022-10-31T08:31:53;37.90;;;21.63;;
42364;SDS011;28498;54.400;18.566;2022-10-31T08:34:19;33.78;;;20.00;;
42364;SDS011;28498;54.400;18.566;2022-10-31T08:36:46;35.08;;;20.88;;
42364;SDS011;28498;54.400;18.566;2022-10-31T08:39:13;32.50;;;20.20;;
42364;SDS011;28498;54.400;18.566;2022-10-31T08:41:40;34.28;;;19.80;;
42364;SDS011;28498;54.400;18.566;2022-10-31T08:48:01;28.38;;;18.38;;
42364;SDS011;28498;54.400;18.566;2022-10-31T08:50:31;30.10;;;19.52;;
42364;SDS011;28498;54.400;18.566;2022-10-31T08:53:23;34.22;;;21.08;;
42364;SDS011;28498;54.400;18.566;2022-10-31T08:55:46;30.88;;;18.30;;
42364;SDS011;28498;54.400;18.566;2022-10-31T08:58:14;38.58;;;20.90;;
42364;SDS011;28498;54.400;18.566;2022-10-31T09:00:43;33.30;;;20.30;;
42364;SDS011;28498;54.400;18.566;2022-10-31T09:03:12;51.83;;;29.60;;
42364;SDS011;28498;54.400;18.566;2022-10-31T09:05:41;51.97;;;29.98;;
42364;SDS011;28498;54.400;18.566;2022-10-31T09:08:08;33.88;;;19.23;;
42364;SDS011;28498;54.400;18.566;2022-10-31T09:10:41;33.65;;;20.52;;
42364;SDS011;28498;54.400;18.566;2022-10-31T09:13:10;35.45;;;21.73;;
42364;SDS011;28498;54.400;18.566;2022-10-31T09:15:41;34.28;;;21.10;;
42364;SDS011;28498;54.400;18.566;2022-10-31T09:18:10;41.15;;;23.90;;
42364;SDS011;28498;54.400;18.566;2022-10-31T09:20:38;42.35;;;23.00;;
42364;SDS011;28498;54.400;18.566;2022-10-31T09:23:08;40.22;;;20.55;;
42364;SDS011;28498;54.400;18.566;2022-10-31T09:25:40;40.22;;;21.85;;
42364;SDS011;28498;54.400;18.566;2022-10-31T09:28:15;36.65;;;20.45;;
42364;SDS011;28498;54.400;18.566;2022-10-31T09:30:46;35.00;;;20.73;;
42364;SDS011;28498;54.400;18.566;2022-10-31T09:33:14;34.95;;;21.30;;
42364;SDS011;28498;54.400;18.566;2022-10-31T09:35:42;36.25;;;21.73;;
42364;SDS011;28498;54.400;18.566;2022-10-31T09:38:10;37.08;;;21.10;;
42364;SDS011;28498;54.400;18.566;2022-10-31T09:40:41;37.90;;;21.85;;
42364;SDS011;28498;54.400;18.566;2022-10-31T09:51:34;36.30;;;20.67;;
42364;SDS011;28498;54.400;18.566;2022-10-31T09:54:10;42.05;;;23.55;;
42364;SDS011;28498;54.400;18.566;2022-10-31T09:56:42;40.45;;;22.67;;
42364;SDS011;28498;54.400;18.566;2022-10-31T09:59:12;37.58;;;21.13;;
42364;SDS011;28498;54.400;18.566;2022-10-31T10:04:43;45.63;;;24.85;;
42364;SDS011;28498;54.400;18.566;2022-10-31T10:10:27;40.80;;;23.70;;
42364;SDS011;28498;54.400;18.566;2022-10-31T10:16:10;47.33;;;25.10;;
42364;SDS011;28498;54.400;18.566;2022-10-31T10:21:40;41.30;;;24.00;;
42364;SDS011;28498;54.400;18.566;2022-10-31T10:26:54;51.63;;;25.40;;
42364;SDS011;28498;54.400;18.566;2022-10-31T10:29:33;47.53;;;25.20;;
42364;SDS011;28498;54.400;18.566;2022-10-31T10:32:20;51.97;;;24.77;;
42364;SDS011;28498;54.400;18.566;2022-10-31T10:34:51;54.85;;;26.20;;
42364;SDS011;28498;54.400;18.566;2022-10-31T10:37:32;53.38;;;28.20;;
42364;SDS011;28498;54.400;18.566;2022-10-31T10:40:07;47.53;;;27.02;;
42364;SDS011;28498;54.400;18.566;2022-10-31T10:42:41;51.88;;;27.08;;
42364;SDS011;28498;54.400;18.566;2022-10-31T10:45:30;46.83;;;26.60;;
42364;SDS011;28498;54.400;18.566;2022-10-31T10:48:29;55.42;;;26.65;;
42364;SDS011;28498;54.400;18.566;2022-10-31T10:51:57;51.35;;;27.83;;
42364;SDS011;28498;54.400;18.566;2022-10-31T10:57:58;57.30;;;28.67;;
42364;SDS011;28498;54.400;18.566;2022-10-31T11:00:32;53.30;;;27.05;;
42364;SDS011;28498;54.400;18.566;2022-10-31T11:03:16;51.15;;;26.38;;
42364;SDS011;28498;54.400;18.566;2022-10-31T11:11:03;52.33;;;28.38;;
42364;SDS011;28498;54.400;18.566;2022-10-31T11:13:49;48.65;;;26.33;;
42364;SDS011;28498;54.400;18.566;2022-10-31T11:21:43;44.63;;;25.33;;
42364;SDS011;28498;54.400;18.566;2022-10-31T11:24:20;45.53;;;25.25;;
42364;SDS011;28498;54.400;18.566;2022-10-31T11:26:49;42.25;;;24.77;;
42364;SDS011;28498;54.400;18.566;2022-10-31T11:29:21;47.53;;;25.33;;
42364;SDS011;28498;54.400;18.566;2022-10-31T11:31:52;47.55;;;25.88;;
42364;SDS011;28498;54.400;18.566;2022-10-31T11:34:25;51.22;;;27.88;;
42364;SDS011;28498;54.400;18.566;2022-10-31T11:37:32;48.25;;;27.48;;
42364;SDS011;28498;54.400;18.566;2022-10-31T11:42:25;47.33;;;24.88;;
42364;SDS011;28498;54.400;18.566;2022-10-31T11:44:56;41.95;;;24.95;;
42364;SDS011;28498;54.400;18.566;2022-10-31T11:47:30;48.47;;;24.58;;
42364;SDS011;28498;54.400;18.566;2022-10-31T11:50:00;48.28;;;25.50;;
42364;SDS011;28498;54.400;18.566;2022-10-31T11:52:36;46.20;;;25.23;;
42364;SDS011;28498;54.400;18.566;2022-10-31T11:57:42;38.10;;;22.40;;
42364;SDS011;28498;54.400;18.566;2022-10-31T12:00:20;38.55;;;22.85;;
42364;SDS011;28498;54.400;18.566;2022-10-31T12:06:01;36.65;;;22.10;;
42364;SDS011;28498;54.400;18.566;2022-10-31T12:08:32;37.92;;;20.83;;
42364;SDS011;28498;54.400;18.566;2022-10-31T12:11:09;32.58;;;20.80;;
42364;SDS011;28498;54.400;18.566;2022-10-31T12:19:42;34.60;;;21.38;;
42364;SDS011;28498;54.400;18.566;2022-10-31T12:22:40;29.02;;;19.08;;
42364;SDS011;28498;54.400;18.566;2022-10-31T12:28:41;33.70;;;19.25;;
42364;SDS011;28498;54.400;18.566;2022-10-31T12:37:03;31.25;;;20.40;;
42364;SDS011;28498;54.400;18.566;2022-10-31T12:45:35;32.92;;;20.23;;
42364;SDS011;28498;54.400;18.566;2022-10-31T12:51:27;35.20;;;21.15;;
42364;SDS011;28498;54.400;18.566;2022-10-31T13:04:55;37.75;;;22.30;;
42364;SDS011;28498;54.400;18.566;2022-10-31T13:07:37;39.80;;;22.58;;
42364;SDS011;28498;54.400;18.566;2022-10-31T13:12:48;36.10;;;23.10;;
42364;SDS011;28498;54.400;18.566;2022-10-31T13:15:18;39.28;;;22.27;;
42364;SDS011;28498;54.400;18.566;2022-10-31T13:17:59;35.70;;;20.60;;
42364;SDS011;28498;54.400;18.566;2022-10-31T13:20:41;38.97;;;22.45;;
42364;SDS011;28498;54.400;18.566;2022-10-31T13:23:27;42.30;;;23.48;;
42364;SDS011;28498;54.400;18.566;2022-10-31T13:26:21;40.50;;;23.17;;
42364;SDS011;28498;54.400;18.566;2022-10-31T13:31:28;35.90;;;22.15;;
42364;SDS011;28498;54.400;18.566;2022-10-31T13:33:57;34.40;;;20.83;;
42364;SDS011;28498;54.400;18.566;2022-10-31T13:36:38;35.75;;;20.40;;
42364;SDS011;28498;54.400;18.566;2022-10-31T13:39:16;38.88;;;22.92;;
42364;SDS011;28498;54.400;18.566;2022-10-31T13:41:53;34.03;;;20.60;;
42364;SDS011;28498;54.400;18.566;2022-10-31T13:44:38;33.50;;;19.42;;
42364;SDS011;28498;54.400;18.566;2022-10-31T13:47:24;34.15;;;20.33;;
42364;SDS011;28498;54.400;18.566;2022-10-31T13:50:14;33.33;;;20.50;;
42364;SDS011;28498;54.400;18.566;2022-10-31T13:52:49;35.20;;;20.30;;
42364;SDS011;28498;54.400;18.566;2022-10-31T13:55:35;37.35;;;20.65;;
42364;SDS011;28498;54.400;18.566;2022-10-31T13:58:36;32.60;;;19.80;;
42364;SDS011;28498;54.400;18.566;2022-10-31T14:00:57;37.80;;;22.02;;
42364;SDS011;28498;54.400;18.566;2022-10-31T14:03:35;40.25;;;22.77;;
42364;SDS011;28498;54.400;18.566;2022-10-31T14:06:36;38.22;;;21.88;;
42364;SDS011;28498;54.400;18.566;2022-10-31T14:09:19;34.33;;;21.00;;
42364;SDS011;28498;54.400;18.566;2022-10-31T14:11:57;41.22;;;21.85;;
42364;SDS011;28498;54.400;18.566;2022-10-31T14:14:30;40.83;;;22.02;;
42364;SDS011;28498;54.400;18.566;2022-10-31T14:17:12;38.55;;;22.50;;
42364;SDS011;28498;54.400;18.566;2022-10-31T14:22:37;37.03;;;22.38;;
42364;SDS011;28498;54.400;18.566;2022-10-31T14:28:18;34.47;;;21.35;;
42364;SDS011;28498;54.400;18.566;2022-10-31T14:30:59;37.42;;;21.58;;
42364;SDS011;28498;54.400;18.566;2022-10-31T14:33:27;32.78;;;19.67;;
42364;SDS011;28498;54.400;18.566;2022-10-31T14:36:15;35.58;;;21.83;;
42364;SDS011;28498;54.400;18.566;2022-10-31T14:51:41;36.83;;;21.50;;
42364;SDS011;28498;54.400;18.566;2022-10-31T14:54:21;36.88;;;20.52;;
42364;SDS011;28498;54.400;18.566;2022-10-31T14:56:54;36.17;;;21.00;;
42364;SDS011;28498;54.400;18.566;2022-10-31T14:59:26;37.78;;;21.42;;
42364;SDS011;28498;54.400;18.566;2022-10-31T15:02:19;36.50;;;22.33;;
42364;SDS011;28498;54.400;18.566;2022-10-31T15:08:38;33.10;;;20.45;;
42364;SDS011;28498;54.400;18.566;2022-10-31T15:11:11;41.78;;;22.48;;
42364;SDS011;28498;54.400;18.566;2022-10-31T15:13:44;36.67;;;20.35;;
42364;SDS011;28498;54.400;18.566;2022-10-31T15:16:32;35.42;;;22.25;;
42364;SDS011;28498;54.400;18.566;2022-10-31T15:19:05;36.25;;;20.88;;
42364;SDS011;28498;54.400;18.566;2022-10-31T15:21:33;32.85;;;19.70;;
42364;SDS011;28498;54.400;18.566;2022-10-31T15:24:05;37.38;;;19.88;;
42364;SDS011;28498;54.400;18.566;2022-10-31T15:26:33;39.67;;;20.90;;
42364;SDS011;28498;54.400;18.566;2022-10-31T15:29:05;36.88;;;21.38;;
42364;SDS011;28498;54.400;18.566;2022-10-31T15:32:08;35.35;;;19.90;;
42364;SDS011;28498;54.400;18.566;2022-10-31T15:34:39;35.80;;;18.40;;
42364;SDS011;28498;54.400;18.566;2022-10-31T15:37:11;37.90;;;20.60;;
42364;SDS011;28498;54.400;18.566;2022-10-31T15:39:43;39.67;;;20.42;;
42364;SDS011;28498;54.400;18.566;2022-10-31T15:42:54;35.08;;;20.25;;
42364;SDS011;28498;54.400;18.566;2022-10-31T15:45:12;37.53;;;19.37;;
42364;SDS011;28498;54.400;18.566;2022-10-31T15:47:56;40.47;;;20.00;;
42364;SDS011;28498;54.400;18.566;2022-10-31T15:50:31;35.00;;;19.67;;
42364;SDS011;28498;54.400;18.566;2022-10-31T15:52:59;34.85;;;20.55;;
42364;SDS011;28498;54.400;18.566;2022-10-31T15:55:28;41.80;;;20.83;;
42364;SDS011;28498;54.400;18.566;2022-10-31T15:58:11;38.72;;;20.55;;
42364;SDS011;28498;54.400;18.566;2022-10-31T16:00:41;39.33;;;18.70;;
42364;SDS011;28498;54.400;18.566;2022-10-31T16:05:45;41.25;;;19.92;;
42364;SDS011;28498;54.400;18.566;2022-10-31T16:08:24;34.33;;;18.55;;
42364;SDS011;28498;54.400;18.566;2022-10-31T16:10:53;36.00;;;18.20;;
42364;SDS011;28498;54.400;18.566;2022-10-31T16:13:23;37.33;;;18.65;;
42364;SDS011;28498;54.400;18.566;2022-10-31T16:16:00;38.60;;;19.73;;
42364;SDS011;28498;54.400;18.566;2022-10-31T16:18:49;41.08;;;20.55;;
42364;SDS011;28498;54.400;18.566;2022-10-31T16:21:26;45.50;;;20.60;;
42364;SDS011;28498;54.400;18.566;2022-10-31T16:23:59;36.63;;;20.27;;
42364;SDS011;28498;54.400;18.566;2022-10-31T16:26:31;37.40;;;20.20;;
42364;SDS011;28498;54.400;18.566;2022-10-31T16:28:59;40.20;;;19.73;;
42364;SDS011;28498;54.400;18.566;2022-10-31T16:31:37;40.33;;;21.45;;
42364;SDS011;28498;54.400;18.566;2022-10-31T16:34:19;41.92;;;19.65;;
42364;SDS011;28498;54.400;18.566;2022-10-31T16:36:52;43.42;;;21.13;;
42364;SDS011;28498;54.400;18.566;2022-10-31T16:39:19;37.65;;;20.13;;
42364;SDS011;28498;54.400;18.566;2022-10-31T16:41:47;42.53;;;21.98;;
42364;SDS011;28498;54.400;18.566;2022-10-31T16:44:18;45.20;;;20.73;;
42364;SDS011;28498;54.400;18.566;2022-10-31T16:46:50;40.90;;;21.40;;
42364;SDS011;28498;54.400;18.566;2022-10-31T16:49:34;54.05;;;21.55;;
42364;SDS011;28498;54.400;18.566;2022-10-31T16:52:01;43.45;;;20.20;;
42364;SDS011;28498;54.400;18.566;2022-10-31T16:54:28;39.85;;;19.35;;
42364;SDS011;28498;54.400;18.566;2022-10-31T16:56:57;39.08;;;19.50;;
42364;SDS011;28498;54.400;18.566;2022-10-31T16:59:25;36.53;;;18.95;;
42364;SDS011;28498;54.400;18.566;2022-10-31T17:01:53;37.90;;;19.65;;
42364;SDS011;28498;54.400;18.566;2022-10-31T17:04:21;41.00;;;21.40;;
42364;SDS011;28498;54.400;18.566;2022-10-31T17:06:48;41.45;;;19.65;;
42364;SDS011;28498;54.400;18.566;2022-10-31T17:09:16;41.67;;;21.98;;